Saint Simons Island, Georgia
Current Conditions -  °F | °C
As of 4:53 AM on Friday 19 Dec 2014 (Local Time) from KSSI Reporting Station
Clear Clear  
Wind Chill: 46°   Ceiling: Unl
Heat Index: 48°   Visibility: 10mi
Dew Point: 41°   Wind: 5mph
Humidity: 77%   Direction: 320°NW
Pressure: 30.09"   Gusts: NA
Location:  31.15°N, 81.38°W
Report Text: KSSI 190953Z AUTO 32004KT 10SM CLR 09/05 A3009 RMK AO2 SLP190 T00890050
Loading
Personal Weather Stations






























Interactive Weather Map New forecast layout! Learn more

10-Day Weather Forecast

Advertisements
Track Severe Weather on mobile